Terminal Aerodrome Forecast
Issued by NWS

Home | Current Version | Previous Version | Text Only | Print | Product List | Glossary On
Versions: 1 2 3 4 5 6 7 8 9 10 11 12 13 14 15 16 17
000
FTAK31 PAFA 242334
TAFAOT
TAF
PAOT 242334Z 2500/2524 14012KT 2SM -SHSN BR BKN030 OVC035
     FM250600 11018KT 4SM -SHSN SCT015 OVC025
     FM251200 12020G30KT 2SM -SHSN BKN015 OVC025=

USA.gov is the U.S. government's official web portal to all federal, state and local government web resources and services.